createdAt,value
2023-03-02T00:00:16.626Z,0.77
2023-03-02T00:03:18.399Z,0.76
2023-03-02T00:06:20.256Z,0.76
2023-03-02T00:09:21.939Z,0.76
2023-03-02T00:12:24.283Z,0.68
2023-03-02T00:15:26.792Z,0.72
2023-03-02T00:18:28.371Z,0.70
2023-03-02T00:21:30.210Z,0.66
2023-03-02T00:24:32.082Z,0.65
2023-03-02T00:27:33.748Z,0.61
2023-03-02T00:30:38.257Z,0.57
2023-03-02T00:33:41.023Z,0.56
2023-03-02T00:36:43.465Z,0.56
2023-03-02T00:39:45.462Z,0.56
2023-03-02T00:42:47.059Z,0.56
2023-03-02T00:45:48.780Z,0.54
2023-03-02T00:48:51.811Z,0.54
2023-03-02T00:51:53.439Z,0.52
2023-03-02T00:54:55.107Z,0.52
2023-03-02T00:57:57.128Z,0.51
2023-03-02T01:01:11.305Z,0.50
2023-03-02T01:04:18.647Z,0.49
2023-03-02T01:07:22.640Z,0.47
2023-03-02T01:10:24.389Z,0.42
2023-03-02T01:13:26.080Z,0.38
2023-03-02T01:16:27.944Z,0.37
2023-03-02T01:19:30.946Z,0.34
2023-03-02T01:22:32.656Z,0.35
2023-03-02T01:25:36.579Z,0.32
2023-03-02T01:28:40.349Z,0.30
2023-03-02T01:31:42.530Z,0.26
2023-03-02T01:34:44.419Z,0.23
2023-03-02T01:37:46.085Z,0.23
2023-03-02T01:40:47.884Z,0.23
2023-03-02T01:43:49.519Z,0.21
2023-03-02T01:46:51.299Z,0.22
2023-03-02T01:50:01.636Z,0.19
2023-03-02T01:53:11.670Z,0.20
2023-03-02T01:56:19.814Z,0.19
2023-03-02T01:59:23.820Z,0.18
2023-03-02T02:02:26.522Z,0.16
2023-03-02T02:05:28.252Z,0.13
2023-03-02T02:08:30.528Z,0.15
2023-03-02T02:11:32.203Z,0.14
2023-03-02T02:14:33.962Z,0.14
2023-03-02T02:17:35.806Z,0.15
2023-03-02T02:20:41.057Z,0.16
2023-03-02T02:24:01.904Z,0.14
2023-03-02T02:27:03.839Z,0.14
2023-03-02T02:30:07.966Z,0.13
2023-03-02T02:33:16.882Z,0.09
2023-03-02T02:36:25.614Z,0.05
2023-03-02T02:39:34.226Z,0.02
2023-03-02T02:42:43.442Z,-0.02
2023-03-02T02:45:48.471Z,-0.06
2023-03-02T02:48:50.324Z,-0.10
2023-03-02T02:51:52.730Z,-0.12
2023-03-02T02:54:57.886Z,-0.15
2023-03-02T02:58:02.837Z,-0.20
2023-03-02T03:01:07.094Z,-0.21
2023-03-02T03:04:14.178Z,-0.23
2023-03-02T03:07:25.552Z,-0.26
2023-03-02T03:10:37.431Z,-0.30
2023-03-02T03:13:41.077Z,-0.31
2023-03-02T03:16:45.343Z,-0.33
2023-03-02T03:19:47.702Z,-0.36
2023-03-02T03:22:53.454Z,-0.37
2023-03-02T03:25:55.857Z,-0.33
2023-03-02T03:28:57.552Z,-0.33
2023-03-02T03:32:01.345Z,-0.33
2023-03-02T03:35:08.523Z,-0.32
2023-03-02T03:38:12.128Z,-0.31
2023-03-02T03:41:13.890Z,-0.30
2023-03-02T03:44:15.716Z,-0.32
2023-03-02T03:47:19.129Z,-0.34
2023-03-02T03:50:21.519Z,-0.28
2023-03-02T03:53:23.453Z,-0.26
2023-03-02T03:56:30.740Z,-0.26
2023-03-02T03:59:34.107Z,-0.26
2023-03-02T04:02:38.498Z,-0.34
2023-03-02T04:05:40.583Z,-0.32
2023-03-02T04:08:43.661Z,-0.38
2023-03-02T04:11:47.882Z,-0.37
2023-03-02T04:14:50.007Z,-0.42
2023-03-02T04:17:51.792Z,-0.44
2023-03-02T04:20:55.170Z,-0.48
2023-03-02T04:23:56.874Z,-0.51
2023-03-02T04:26:58.896Z,-0.56
2023-03-02T04:30:01.427Z,-0.58
2023-03-02T04:33:04.949Z,-0.61
2023-03-02T04:36:10.160Z,-0.63
2023-03-02T04:39:14.793Z,-0.64
2023-03-02T04:42:20.946Z,-0.63
2023-03-02T04:45:22.596Z,-0.64
2023-03-02T04:48:24.676Z,-0.62
2023-03-02T04:51:30.312Z,-0.64
2023-03-02T04:54:32.205Z,-0.65
2023-03-02T04:57:33.853Z,-0.61
2023-03-02T05:00:36.100Z,-0.59
2023-03-02T05:03:37.888Z,-0.59
2023-03-02T05:06:41.015Z,-0.60
2023-03-02T05:09:42.680Z,-0.57
2023-03-02T05:13:02.601Z,-0.59
2023-03-02T05:16:04.640Z,-0.63
2023-03-02T05:19:09.306Z,-0.58
2023-03-02T05:22:11.528Z,-0.58
2023-03-02T05:25:14.534Z,-0.58
2023-03-02T05:28:18.991Z,-0.58
2023-03-02T05:31:41.231Z,-0.60
2023-03-02T05:34:43.404Z,-0.66
2023-03-02T05:37:45.586Z,-0.66
2023-03-02T05:40:48.565Z,-0.69
2023-03-02T05:43:50.701Z,-0.73
2023-03-02T05:46:52.827Z,-0.80
2023-03-02T05:49:54.639Z,-0.81
2023-03-02T05:52:56.487Z,-0.85
2023-03-02T05:55:58.239Z,-0.88
2023-03-02T05:59:00.266Z,-0.89
2023-03-02T06:02:03.191Z,-0.96
2023-03-02T06:05:09.310Z,-0.94
2023-03-02T06:08:12.138Z,-0.98
2023-03-02T06:11:16.116Z,-0.99
2023-03-02T06:14:19.230Z,-1.01
2023-03-02T06:17:20.934Z,-1.02
2023-03-02T06:20:22.797Z,-1.09
2023-03-02T06:23:25.142Z,-1.05
2023-03-02T06:26:26.754Z,-1.03
2023-03-02T06:29:28.322Z,-0.99
2023-03-02T06:32:34.226Z,-0.97
2023-03-02T06:35:36.063Z,-0.99
2023-03-02T06:38:40.561Z,-0.91
2023-03-02T06:41:44.923Z,-0.88
2023-03-02T06:44:48.568Z,-0.81
2023-03-02T06:47:50.167Z,-0.80
2023-03-02T06:50:51.776Z,-0.74
2023-03-02T06:53:53.675Z,-0.70
2023-03-02T06:56:57.798Z,-0.70
2023-03-02T07:00:01.405Z,-0.67
2023-03-02T07:03:03.912Z,-0.61
2023-03-02T07:06:06.272Z,-0.55
2023-03-02T07:09:08.628Z,-0.53
2023-03-02T07:12:11.568Z,-0.47
2023-03-02T07:15:16.243Z,-0.45
2023-03-02T07:18:18.989Z,-0.38
2023-03-02T07:21:23.368Z,-0.34
2023-03-02T07:24:25.623Z,-0.26
2023-03-02T07:27:27.706Z,-0.24
2023-03-02T07:30:29.828Z,-0.15
2023-03-02T07:33:32.162Z,-0.11
2023-03-02T07:36:34.248Z,-0.07
2023-03-02T07:39:35.866Z,-0.02
2023-03-02T07:42:38.701Z,0.03
2023-03-02T07:45:43.933Z,0.11
2023-03-02T07:48:45.556Z,0.17
2023-03-02T07:51:49.161Z,0.23
2023-03-02T07:54:50.970Z,0.28
2023-03-02T07:57:53.183Z,0.34
2023-03-02T08:00:54.787Z,0.43
2023-03-02T08:03:56.882Z,0.53
2023-03-02T08:06:59.035Z,0.61
2023-03-02T08:10:01.372Z,0.69
2023-03-02T08:13:03.743Z,0.79
2023-03-02T08:16:08.740Z,0.89
2023-03-02T08:19:10.795Z,0.93
2023-03-02T08:22:13.070Z,0.98
2023-03-02T08:25:17.246Z,1.10
2023-03-02T08:28:20.141Z,1.18
2023-03-02T08:31:22.330Z,1.25
2023-03-02T08:34:26.343Z,1.31
2023-03-02T08:37:28.644Z,1.38
2023-03-02T08:40:30.245Z,1.44
2023-03-02T08:43:32.386Z,1.50
2023-03-02T08:46:34.592Z,1.60
2023-03-02T08:49:37.943Z,1.64
2023-03-02T08:52:40.213Z,1.75
2023-03-02T08:55:41.831Z,1.81
2023-03-02T08:58:46.388Z,1.89
2023-03-02T09:01:48.213Z,1.97
2023-03-02T09:04:50.394Z,2.05
2023-03-02T09:07:52.466Z,2.13
2023-03-02T09:10:54.520Z,2.23
2023-03-02T09:13:56.331Z,2.31
2023-03-02T09:16:59.045Z,2.39
2023-03-02T09:20:01.250Z,2.45
2023-03-02T09:23:02.842Z,2.55
2023-03-02T09:26:06.132Z,2.62
2023-03-02T09:29:08.416Z,2.69
2023-03-02T09:32:11.791Z,2.77
2023-03-02T09:35:15.588Z,2.81
2023-03-02T09:38:18.714Z,2.91
2023-03-02T09:42:07.891Z,2.99
2023-03-02T09:45:22.238Z,3.07
2023-03-02T09:48:44.290Z,3.13
2023-03-02T09:51:48.663Z,3.20
2023-03-02T09:54:50.838Z,3.27
2023-03-02T09:57:54.909Z,3.34
2023-03-02T10:00:59.198Z,3.42
2023-03-02T10:04:13.559Z,3.52
2023-03-02T10:07:35.673Z,3.63
2023-03-02T10:10:54.755Z,3.74
2023-03-02T10:14:33.793Z,3.85
2023-03-02T10:18:01.454Z,3.99
2023-03-02T10:21:05.725Z,4.06
2023-03-02T10:24:41.308Z,4.12
2023-03-02T10:27:52.372Z,4.24
2023-03-02T10:31:08.263Z,4.33
2023-03-02T10:34:14.919Z,4.43
2023-03-02T10:37:28.481Z,4.51
2023-03-02T10:40:49.769Z,4.59
2023-03-02T10:43:57.559Z,4.68
2023-03-02T10:46:59.592Z,4.74
2023-03-02T10:50:01.247Z,4.72
2023-03-02T10:53:06.738Z,4.80
2023-03-02T10:56:22.380Z,4.83
2023-03-02T10:59:45.852Z,4.88
2023-03-02T11:03:02.591Z,4.96
2023-03-02T11:06:21.455Z,4.99
2023-03-02T11:09:23.497Z,5.08
2023-03-02T11:12:26.119Z,5.17
2023-03-02T11:15:46.030Z,5.29
2023-03-02T11:19:10.369Z,5.38
2023-03-02T11:22:44.065Z,5.43
2023-03-02T11:25:57.336Z,5.52
2023-03-02T11:29:04.608Z,5.58
2023-03-02T11:32:20.296Z,5.68
2023-03-02T11:35:45.357Z,5.82
2023-03-02T11:38:51.314Z,5.92
2023-03-02T11:41:54.650Z,5.99
2023-03-02T11:45:18.870Z,6.06
2023-03-02T11:48:33.443Z,6.11
2023-03-02T11:51:50.020Z,6.18
2023-03-02T11:55:15.423Z,6.26
2023-03-02T11:58:21.181Z,6.37
2023-03-02T12:01:26.843Z,6.40
2023-03-02T12:04:32.577Z,6.49
2023-03-02T12:07:34.343Z,6.53
2023-03-02T12:10:42.601Z,6.60
2023-03-02T12:14:04.091Z,6.68
2023-03-02T12:17:26.363Z,6.78
2023-03-02T12:20:30.878Z,6.85
2023-03-02T12:24:04.007Z,6.99
2023-03-02T12:27:21.399Z,7.10
2023-03-02T12:30:28.681Z,7.15
2023-03-02T12:33:30.444Z,7.18
2023-03-02T12:36:41.441Z,7.25
2023-03-02T12:40:03.105Z,7.31
2023-03-02T12:43:20.660Z,7.36
2023-03-02T12:46:34.049Z,7.43
2023-03-02T12:49:58.628Z,7.45
2023-03-02T12:53:02.816Z,7.53
2023-03-02T12:56:04.825Z,7.61
2023-03-02T12:59:06.775Z,7.69
2023-03-02T13:02:21.739Z,7.77
2023-03-02T13:05:35.464Z,7.83
2023-03-02T13:08:37.694Z,7.87
2023-03-02T13:11:39.975Z,7.92
2023-03-02T13:14:46.177Z,7.97
2023-03-02T13:18:00.533Z,8.00
2023-03-02T13:21:04.805Z,8.12
2023-03-02T13:24:33.715Z,8.18
2023-03-02T13:27:35.460Z,8.25
2023-03-02T13:30:43.566Z,8.33
2023-03-02T13:33:47.430Z,8.42
2023-03-02T13:36:52.164Z,8.44
2023-03-02T13:39:59.764Z,8.51
2023-03-02T13:43:01.483Z,8.54
2023-03-02T13:46:16.055Z,8.51
2023-03-02T13:49:35.760Z,8.51
2023-03-02T13:52:37.450Z,8.51
2023-03-02T13:55:40.124Z,8.53
2023-03-02T13:58:41.847Z,8.49
2023-03-02T14:01:47.690Z,8.48
2023-03-02T14:04:49.474Z,8.49
2023-03-02T14:07:51.686Z,8.45
2023-03-02T14:10:59.637Z,8.49
2023-03-02T14:14:03.242Z,8.46
2023-03-02T14:17:16.564Z,8.50
2023-03-02T14:20:22.924Z,8.49
2023-03-02T14:23:26.316Z,8.48
2023-03-02T14:26:38.003Z,8.47
2023-03-02T14:29:39.665Z,8.51
2023-03-02T14:32:41.316Z,8.50
2023-03-02T14:35:44.097Z,8.49
2023-03-02T14:38:48.042Z,8.53
2023-03-02T14:41:54.486Z,8.51
2023-03-02T14:44:56.500Z,8.54
2023-03-02T14:47:58.089Z,8.56
2023-03-02T14:51:01.243Z,8.56
2023-03-02T14:54:07.444Z,8.57
2023-03-02T14:57:28.040Z,8.61
2023-03-02T15:00:31.608Z,8.69
2023-03-02T15:03:33.330Z,8.84
2023-03-02T15:06:38.661Z,9.06
2023-03-02T15:09:40.316Z,9.35
2023-03-02T15:12:41.994Z,9.61
2023-03-02T15:15:44.715Z,9.79
2023-03-02T15:18:49.903Z,10.03
2023-03-02T15:21:52.958Z,10.20
2023-03-02T15:24:55.575Z,10.37
2023-03-02T15:27:57.950Z,10.50
2023-03-02T15:31:10.083Z,10.62
2023-03-02T15:34:12.610Z,10.66
2023-03-02T15:37:14.852Z,10.68
2023-03-02T15:40:19.031Z,10.67
2023-03-02T15:43:20.996Z,10.60
2023-03-02T15:46:23.902Z,10.48
2023-03-02T15:49:28.564Z,10.29
2023-03-02T15:52:31.440Z,10.13
2023-03-02T15:55:33.169Z,9.93
2023-03-02T15:58:35.841Z,9.73
2023-03-02T16:01:37.496Z,9.50
2023-03-02T16:04:39.256Z,9.32
2023-03-02T16:07:41.128Z,9.09
2023-03-02T16:10:42.996Z,8.92
2023-03-02T16:13:44.612Z,8.76
2023-03-02T16:16:46.410Z,8.55
2023-03-02T16:19:48.547Z,8.37
2023-03-02T16:22:51.792Z,8.20
2023-03-02T16:25:56.231Z,8.00
2023-03-02T16:29:00.348Z,7.82
2023-03-02T16:32:02.224Z,7.62
2023-03-02T16:35:04.284Z,7.45
2023-03-02T16:38:06.444Z,7.32
2023-03-02T16:41:16.793Z,7.15
2023-03-02T16:44:19.316Z,7.04
2023-03-02T16:47:22.489Z,6.90
2023-03-02T16:50:25.056Z,6.78
2023-03-02T16:53:28.136Z,6.69
2023-03-02T16:56:30.251Z,6.58
2023-03-02T16:59:33.092Z,6.50
2023-03-02T17:02:35.160Z,6.40
2023-03-02T17:05:37.805Z,6.29
2023-03-02T17:08:39.605Z,6.19
2023-03-02T17:11:41.229Z,6.09
2023-03-02T17:14:42.836Z,6.00
2023-03-02T17:17:44.434Z,5.91
2023-03-02T17:20:46.457Z,5.81
2023-03-02T17:23:50.893Z,5.70
2023-03-02T17:26:56.564Z,5.59
2023-03-02T17:29:59.337Z,5.47
2023-03-02T17:33:01.644Z,5.36
2023-03-02T17:36:07.409Z,5.31
2023-03-02T17:39:09.344Z,5.18
2023-03-02T17:42:11.077Z,5.06
2023-03-02T17:45:27.273Z,4.99
2023-03-02T17:48:28.850Z,4.90
2023-03-02T17:51:30.608Z,4.81
2023-03-02T17:54:32.759Z,4.69
2023-03-02T17:57:34.519Z,4.62
2023-03-02T18:00:36.317Z,4.52
2023-03-02T18:03:38.913Z,4.42
2023-03-02T18:06:40.846Z,4.35
2023-03-02T18:09:42.847Z,4.30
2023-03-02T18:12:44.397Z,4.20
2023-03-02T18:15:46.055Z,4.12
2023-03-02T18:18:48.484Z,4.05
2023-03-02T18:21:50.094Z,3.98
2023-03-02T18:24:53.033Z,3.88
2023-03-02T18:27:55.214Z,3.83
2023-03-02T18:30:58.537Z,3.76
2023-03-02T18:34:02.514Z,3.69
2023-03-02T18:37:05.403Z,3.63
2023-03-02T18:40:07.952Z,3.58
2023-03-02T18:43:09.636Z,3.48
2023-03-02T18:46:20.878Z,3.45
2023-03-02T18:49:24.084Z,3.39
2023-03-02T18:52:26.500Z,3.34
2023-03-02T18:55:28.191Z,3.27
2023-03-02T18:58:34.053Z,3.19
2023-03-02T19:01:35.743Z,3.18
2023-03-02T19:04:37.672Z,3.09
2023-03-02T19:07:39.506Z,3.10
2023-03-02T19:10:42.357Z,3.03
2023-03-02T19:13:44.064Z,3.00
2023-03-02T19:16:46.328Z,2.95
2023-03-02T19:19:47.986Z,2.90
2023-03-02T19:22:49.791Z,2.87
2023-03-02T19:25:53.900Z,2.81
2023-03-02T19:28:55.630Z,2.75
2023-03-02T19:31:58.321Z,2.72
2023-03-02T19:35:04.169Z,2.68
2023-03-02T19:38:07.280Z,2.64
2023-03-02T19:41:12.631Z,2.61
2023-03-02T19:44:14.329Z,2.54
2023-03-02T19:47:16.066Z,2.54
2023-03-02T19:50:18.906Z,2.51
2023-03-02T19:53:22.792Z,2.47
2023-03-02T19:56:33.100Z,2.41
2023-03-02T19:59:36.592Z,2.40
2023-03-02T20:02:40.749Z,2.32
2023-03-02T20:05:42.435Z,2.29
2023-03-02T20:08:44.480Z,2.20
2023-03-02T20:11:47.574Z,2.20
2023-03-02T20:14:53.714Z,2.16
2023-03-02T20:17:58.471Z,2.11
2023-03-02T20:21:02.156Z,2.07
2023-03-02T20:24:05.036Z,2.01
2023-03-02T20:27:07.330Z,1.96
2023-03-02T20:30:13.764Z,1.90
2023-03-02T20:33:16.273Z,1.83
2023-03-02T20:36:30.527Z,1.76
2023-03-02T20:39:35.637Z,1.69
2023-03-02T20:42:37.552Z,1.63
2023-03-02T20:45:39.893Z,1.56
2023-03-02T20:48:41.540Z,1.52
2023-03-02T20:51:49.422Z,1.44
2023-03-02T20:54:53.807Z,1.40
2023-03-02T20:58:10.671Z,1.34
2023-03-02T21:01:17.424Z,1.24
2023-03-02T21:04:20.791Z,1.20
2023-03-02T21:07:24.217Z,1.17
2023-03-02T21:10:32.823Z,1.11
2023-03-02T21:13:34.471Z,1.04
2023-03-02T21:16:38.905Z,0.99
2023-03-02T21:19:40.521Z,0.99
2023-03-02T21:22:42.437Z,0.94
2023-03-02T21:25:44.835Z,0.90
2023-03-02T21:28:46.556Z,0.86
2023-03-02T21:31:48.505Z,0.82
2023-03-02T21:34:52.609Z,0.78
2023-03-02T21:37:58.388Z,0.75
2023-03-02T21:41:01.161Z,0.69
2023-03-02T21:44:05.513Z,0.63
2023-03-02T21:47:07.245Z,0.62
2023-03-02T21:50:13.114Z,0.58
2023-03-02T21:53:14.761Z,0.52
2023-03-02T21:56:20.748Z,0.50
2023-03-02T21:59:26.084Z,0.46
2023-03-02T22:02:28.234Z,0.42
2023-03-02T22:05:32.139Z,0.37
2023-03-02T22:08:35.431Z,0.35
2023-03-02T22:11:38.411Z,0.31
2023-03-02T22:14:40.064Z,0.28
2023-03-02T22:17:42.380Z,0.27
2023-03-02T22:20:47.188Z,0.24
2023-03-02T22:23:48.986Z,0.19
2023-03-02T22:26:57.189Z,0.17
2023-03-02T22:30:02.782Z,0.15
2023-03-02T22:33:15.048Z,0.12
2023-03-02T22:36:23.937Z,0.06
2023-03-02T22:39:30.773Z,0.07
2023-03-02T22:42:34.051Z,0.04
2023-03-02T22:45:38.283Z,0.01
2023-03-02T22:48:41.790Z,-0.01
2023-03-02T22:51:44.568Z,-0.03
2023-03-02T22:54:46.466Z,-0.05
2023-03-02T22:57:48.094Z,-0.06
2023-03-02T23:00:49.793Z,-0.09
2023-03-02T23:03:54.391Z,-0.11
2023-03-02T23:07:01.135Z,-0.13
2023-03-02T23:10:03.548Z,-0.16
2023-03-02T23:13:05.173Z,-0.20
2023-03-02T23:16:18.193Z,-0.21
2023-03-02T23:19:20.444Z,-0.22
2023-03-02T23:22:23.159Z,-0.24
2023-03-02T23:25:26.068Z,-0.27
2023-03-02T23:28:27.654Z,-0.30
2023-03-02T23:31:31.317Z,-0.30
2023-03-02T23:34:32.978Z,-0.33
2023-03-02T23:37:34.634Z,-0.34
2023-03-02T23:40:36.230Z,-0.42
2023-03-02T23:43:38.143Z,-0.38
2023-03-02T23:46:39.914Z,-0.41
2023-03-02T23:49:41.484Z,-0.41
2023-03-02T23:52:43.271Z,-0.43
2023-03-02T23:55:48.974Z,-0.44
2023-03-02T23:58:50.676Z,-0.45
